Terminal Aerodrome Forecast
Issued by NWS

Home | Current Version | Previous Version | Text Only | Print | Product List | Glossary On
Versions: 1 2 3 4 5 6 7 8 9 10 11 12 13 14 15 16 17 18 19
000
FTUS43 KMKX 220520
TAFENW
TAF
KENW 220520Z 2206/2306 18011KT P6SM SCT060 BKN200 WS020/19045KT
     FM221500 18014G23KT P6SM VCSH OVC025
     FM221700 19013KT 6SM -SHRA OVC015
     FM221900 22011KT 6SM -SHRA OVC010
     FM222100 33010KT 6SM -SHRA OVC025
     FM230000 34007KT P6SM BKN035=

USA.gov is the U.S. government's official web portal to all federal, state and local government web resources and services.